createdAt,value
2023-06-01T00:00:29.189Z,1013.56
2023-06-01T00:01:29.200Z,1013.53
2023-06-01T00:02:29.318Z,1013.50
2023-06-01T00:03:29.318Z,1013.54
2023-06-01T00:04:29.327Z,1013.54
2023-06-01T00:05:29.280Z,1013.52
2023-06-01T00:06:29.292Z,1013.53
2023-06-01T00:07:29.309Z,1013.55
2023-06-01T00:08:29.334Z,1013.54
2023-06-01T00:09:29.374Z,1013.54
2023-06-01T00:10:29.378Z,1013.55
2023-06-01T00:11:29.386Z,1013.54
2023-06-01T00:12:29.402Z,1013.57
2023-06-01T00:13:29.434Z,1013.55
2023-06-01T00:14:29.442Z,1013.59
2023-06-01T00:15:29.465Z,1013.57
2023-06-01T00:16:29.554Z,1013.59
2023-06-01T00:17:29.502Z,1013.60
2023-06-01T00:18:29.524Z,1013.60
2023-06-01T00:19:29.536Z,1013.56
2023-06-01T00:20:29.555Z,1013.55
2023-06-01T00:21:29.615Z,1013.61
2023-06-01T00:22:29.609Z,1013.58
2023-06-01T00:23:29.627Z,1013.57
2023-06-01T00:24:29.627Z,1013.60
2023-06-01T00:25:29.646Z,1013.56
2023-06-01T00:26:29.665Z,1013.54
2023-06-01T00:27:29.686Z,1013.50
2023-06-01T00:28:29.704Z,1013.49
2023-06-01T00:29:29.720Z,1013.53
2023-06-01T00:30:29.738Z,1013.55
2023-06-01T00:31:29.790Z,1013.54
2023-06-01T00:32:29.781Z,1013.52
2023-06-01T00:33:29.799Z,1013.52
2023-06-01T00:34:29.821Z,1013.55
2023-06-01T00:35:29.835Z,1013.51
2023-06-01T00:36:29.849Z,1013.51
2023-06-01T00:37:29.882Z,1013.52
2023-06-01T00:38:29.889Z,1013.54
2023-06-01T00:39:29.908Z,1013.50
2023-06-01T00:40:29.924Z,1013.50
2023-06-01T00:41:29.939Z,1013.50
2023-06-01T00:42:29.969Z,1013.53
2023-06-01T00:43:29.988Z,1013.50
2023-06-01T00:44:29.993Z,1013.53
2023-06-01T00:45:30.012Z,1013.51
2023-06-01T00:46:30.053Z,1013.48
2023-06-01T00:47:30.093Z,1013.49
2023-06-01T00:48:30.065Z,1013.50
2023-06-01T00:49:30.088Z,1013.49
2023-06-01T00:50:30.102Z,1013.52
2023-06-01T00:51:30.143Z,1013.51
2023-06-01T00:52:30.141Z,1013.50
2023-06-01T00:53:30.158Z,1013.49
2023-06-01T00:54:30.175Z,1013.48
2023-06-01T00:55:30.195Z,1013.45
2023-06-01T00:56:30.208Z,1013.47
2023-06-01T00:57:30.230Z,1013.43
2023-06-01T00:58:30.248Z,1013.49
2023-06-01T00:59:30.261Z,1013.42
2023-06-01T01:00:30.292Z,1013.47
2023-06-01T01:01:30.375Z,1013.47
2023-06-01T01:02:30.348Z,1013.50
2023-06-01T01:03:30.336Z,1013.53
2023-06-01T01:04:30.374Z,1013.50
2023-06-01T01:05:30.379Z,1013.48
2023-06-01T01:06:30.391Z,1013.46
2023-06-01T01:07:30.409Z,1013.49
2023-06-01T01:08:30.427Z,1013.52
2023-06-01T01:09:30.449Z,1013.55
2023-06-01T01:10:30.472Z,1013.51
2023-06-01T01:11:30.495Z,1013.51
2023-06-01T01:12:30.505Z,1013.50
2023-06-01T01:13:30.519Z,1013.48
2023-06-01T01:14:30.535Z,1013.51
2023-06-01T01:15:30.580Z,1013.51
2023-06-01T01:16:30.602Z,1013.52
2023-06-01T01:17:30.601Z,1013.52
2023-06-01T01:18:30.635Z,1013.49
2023-06-01T01:19:30.624Z,1013.51
2023-06-01T01:20:30.644Z,1013.51
2023-06-01T01:21:30.656Z,1013.48
2023-06-01T01:22:30.677Z,1013.48
2023-06-01T01:23:30.704Z,1013.48
2023-06-01T01:24:30.712Z,1013.44
2023-06-01T01:25:30.734Z,1013.48
2023-06-01T01:26:30.750Z,1013.46
2023-06-01T01:27:30.765Z,1013.47
2023-06-01T01:28:30.782Z,1013.47
2023-06-01T01:29:30.800Z,1013.45
2023-06-01T01:30:30.822Z,1013.45
2023-06-01T01:31:30.932Z,1013.48
2023-06-01T01:32:30.882Z,1013.48
2023-06-01T01:33:30.880Z,1013.49
2023-06-01T01:34:30.891Z,1013.49
2023-06-01T01:35:30.910Z,1013.46
2023-06-01T01:36:30.921Z,1013.50
2023-06-01T01:37:30.944Z,1013.50
2023-06-01T01:38:30.967Z,1013.51
2023-06-01T01:39:30.977Z,1013.50
2023-06-01T01:40:30.997Z,1013.49
2023-06-01T01:41:31.015Z,1013.47
2023-06-01T01:42:31.032Z,1013.47
2023-06-01T01:43:31.050Z,1013.45
2023-06-01T01:44:31.066Z,1013.43
2023-06-01T01:45:31.086Z,1013.40
2023-06-01T01:46:31.140Z,1013.44
2023-06-01T01:47:31.224Z,1013.43
2023-06-01T01:48:31.135Z,1013.33
2023-06-01T01:49:31.152Z,1013.36
2023-06-01T01:50:31.178Z,1013.35
2023-06-01T01:51:31.187Z,1013.31
2023-06-01T01:52:31.214Z,1013.32
2023-06-01T01:53:31.222Z,1013.34
2023-06-01T01:54:31.241Z,1013.30
2023-06-01T01:55:31.268Z,1013.30
2023-06-01T01:56:31.274Z,1013.34
2023-06-01T01:57:31.290Z,1013.31
2023-06-01T01:58:31.310Z,1013.32
2023-06-01T01:59:31.325Z,1013.31
2023-06-01T02:00:31.347Z,1013.31
2023-06-01T02:01:32.854Z,1013.29
2023-06-01T02:02:31.462Z,1013.28
2023-06-01T02:03:31.564Z,1013.28
2023-06-01T02:04:31.415Z,1013.31
2023-06-01T02:05:31.443Z,1013.28
2023-06-01T02:06:31.458Z,1013.25
2023-06-01T02:07:31.465Z,1013.28
2023-06-01T02:08:31.484Z,1013.28
2023-06-01T02:09:31.501Z,1013.26
2023-06-01T02:10:31.517Z,1013.29
2023-06-01T02:11:31.534Z,1013.26
2023-06-01T02:12:31.557Z,1013.27
2023-06-01T02:13:31.580Z,1013.28
2023-06-01T02:14:31.585Z,1013.31
2023-06-01T02:15:31.599Z,1013.28
2023-06-01T02:16:31.646Z,1013.32
2023-06-01T02:17:31.669Z,1013.26
2023-06-01T02:18:31.652Z,1013.28
2023-06-01T02:19:31.668Z,1013.30
2023-06-01T02:20:31.683Z,1013.28
2023-06-01T02:21:31.745Z,1013.24
2023-06-01T02:22:31.722Z,1013.23
2023-06-01T02:23:32.700Z,1013.25
2023-06-01T02:24:31.755Z,1013.20
2023-06-01T02:25:31.769Z,1013.30
2023-06-01T02:26:31.793Z,1013.26
2023-06-01T02:27:31.804Z,1013.28
2023-06-01T02:28:31.819Z,1013.23
2023-06-01T02:29:31.835Z,1013.23
2023-06-01T02:30:31.868Z,1013.27
2023-06-01T02:31:31.937Z,1013.24
2023-06-01T02:32:31.955Z,1013.25
2023-06-01T02:33:31.909Z,1013.22
2023-06-01T02:34:31.921Z,1013.26
2023-06-01T02:35:31.937Z,1013.23
2023-06-01T02:36:31.955Z,1013.21
2023-06-01T02:37:31.984Z,1013.22
2023-06-01T02:38:31.994Z,1013.19
2023-06-01T02:39:32.022Z,1013.21
2023-06-01T02:40:32.023Z,1013.22
2023-06-01T02:41:32.043Z,1013.20
2023-06-01T02:42:32.069Z,1013.16
2023-06-01T02:43:32.079Z,1013.20
2023-06-01T02:44:32.091Z,1013.16
2023-06-01T02:45:32.104Z,1013.14
2023-06-01T02:46:32.190Z,1013.14
2023-06-01T02:47:32.155Z,1013.16
2023-06-01T02:48:32.167Z,1013.15
2023-06-01T02:49:32.179Z,1013.17
2023-06-01T02:50:32.192Z,1013.20
2023-06-01T02:51:32.214Z,1013.20
2023-06-01T02:52:32.222Z,1013.22
2023-06-01T02:53:32.241Z,1013.17
2023-06-01T02:54:32.256Z,1013.17
2023-06-01T02:55:32.271Z,1013.18
2023-06-01T02:56:32.288Z,1013.18
2023-06-01T02:57:32.307Z,1013.13
2023-06-01T02:58:32.321Z,1013.15
2023-06-01T02:59:32.340Z,1013.14
2023-06-01T03:00:32.350Z,1013.14
2023-06-01T03:01:32.440Z,1013.11
2023-06-01T03:02:32.414Z,1013.14
2023-06-01T03:03:32.460Z,1013.14
2023-06-01T03:04:32.426Z,1013.12
2023-06-01T03:05:32.436Z,1013.14
2023-06-01T03:06:32.463Z,1013.12
2023-06-01T03:07:32.474Z,1013.14
2023-06-01T03:08:32.490Z,1013.13
2023-06-01T03:09:32.506Z,1013.13
2023-06-01T03:10:32.521Z,1013.10
2023-06-01T03:11:32.536Z,1013.20
2023-06-01T03:12:32.550Z,1013.17
2023-06-01T03:13:32.569Z,1013.16
2023-06-01T03:14:32.583Z,1013.11
2023-06-01T03:15:32.631Z,1013.17
2023-06-01T03:16:32.615Z,1013.16
2023-06-01T03:17:32.645Z,1013.20
2023-06-01T03:18:32.692Z,1013.21
2023-06-01T03:19:32.675Z,1013.26
2023-06-01T03:20:32.699Z,1013.24
2023-06-01T03:21:32.747Z,1013.23
2023-06-01T03:22:32.712Z,1013.23
2023-06-01T03:23:32.744Z,1013.25
2023-06-01T03:24:32.749Z,1013.25
2023-06-01T03:25:32.762Z,1013.27
2023-06-01T03:26:32.779Z,1013.25
2023-06-01T03:27:32.796Z,1013.26
2023-06-01T03:28:32.842Z,1013.27
2023-06-01T03:29:32.840Z,1013.28
2023-06-01T03:30:32.846Z,1013.32
2023-06-01T03:31:32.908Z,1013.33
2023-06-01T03:32:32.897Z,1013.29
2023-06-01T03:33:32.894Z,1013.30
2023-06-01T03:34:32.912Z,1013.31
2023-06-01T03:35:32.930Z,1013.28
2023-06-01T03:36:32.941Z,1013.28
2023-06-01T03:37:32.958Z,1013.23
2023-06-01T03:38:32.973Z,1013.25
2023-06-01T03:39:32.989Z,1013.27
2023-06-01T03:40:33.004Z,1013.26
2023-06-01T03:41:33.023Z,1013.30
2023-06-01T03:42:33.040Z,1013.29
2023-06-01T03:43:33.052Z,1013.29
2023-06-01T03:44:33.075Z,1013.33
2023-06-01T03:45:33.085Z,1013.32
2023-06-01T03:46:33.124Z,1013.33
2023-06-01T03:47:33.204Z,1013.37
2023-06-01T03:48:33.135Z,1013.33
2023-06-01T03:49:33.151Z,1013.32
2023-06-01T03:50:33.169Z,1013.30
2023-06-01T03:51:33.185Z,1013.35
2023-06-01T03:52:33.202Z,1013.27
2023-06-01T03:53:33.228Z,1013.32
2023-06-01T03:54:33.230Z,1013.28
2023-06-01T03:55:33.247Z,1013.26
2023-06-01T03:56:33.275Z,1013.28
2023-06-01T03:57:33.287Z,1013.32
2023-06-01T03:58:33.304Z,1013.27
2023-06-01T03:59:33.314Z,1013.33
2023-06-01T04:00:33.328Z,1013.31
2023-06-01T04:01:33.361Z,1013.23
2023-06-01T04:02:33.487Z,1013.28
2023-06-01T04:03:33.545Z,1013.21
2023-06-01T04:04:33.395Z,1013.25
2023-06-01T04:05:33.434Z,1013.25
2023-06-01T04:06:33.427Z,1013.22
2023-06-01T04:07:33.439Z,1013.17
2023-06-01T04:08:33.456Z,1013.20
2023-06-01T04:09:33.483Z,1013.20
2023-06-01T04:10:33.489Z,1013.22
2023-06-01T04:11:33.505Z,1013.22
2023-06-01T04:12:33.522Z,1013.19
2023-06-01T04:13:34.107Z,1013.23
2023-06-01T04:14:33.559Z,1013.22
2023-06-01T04:15:33.580Z,1013.27
2023-06-01T04:16:33.621Z,1013.28
2023-06-01T04:17:33.656Z,1013.24
2023-06-01T04:18:33.622Z,1013.34
2023-06-01T04:19:33.637Z,1013.32
2023-06-01T04:20:33.647Z,1013.34
2023-06-01T04:21:33.721Z,1013.33
2023-06-01T04:22:33.685Z,1013.34
2023-06-01T04:23:33.694Z,1013.28
2023-06-01T04:24:33.712Z,1013.28
2023-06-01T04:25:33.733Z,1013.29
2023-06-01T04:26:33.768Z,1013.29
2023-06-01T04:27:33.757Z,1013.33
2023-06-01T04:28:33.803Z,1013.35
2023-06-01T04:29:33.852Z,1013.35
2023-06-01T04:30:33.810Z,1013.46
2023-06-01T04:31:33.989Z,1013.39
2023-06-01T04:32:33.873Z,1013.34
2023-06-01T04:33:33.852Z,1013.38
2023-06-01T04:34:33.875Z,1013.37
2023-06-01T04:35:33.931Z,1013.41
2023-06-01T04:36:33.921Z,1013.40
2023-06-01T04:37:33.919Z,1013.35
2023-06-01T04:38:33.934Z,1013.39
2023-06-01T04:39:33.954Z,1013.38
2023-06-01T04:40:33.976Z,1013.37
2023-06-01T04:41:33.990Z,1013.34
2023-06-01T04:42:34.017Z,1013.40
2023-06-01T04:43:34.017Z,1013.38
2023-06-01T04:44:35.488Z,1013.39
2023-06-01T04:45:34.049Z,1013.39
2023-06-01T04:46:34.099Z,1013.38
2023-06-01T04:47:34.101Z,1013.41
2023-06-01T04:48:34.102Z,1013.41
2023-06-01T04:49:34.110Z,1013.38
2023-06-01T04:50:34.130Z,1013.38
2023-06-01T04:51:34.177Z,1013.46
2023-06-01T04:52:34.160Z,1013.45
2023-06-01T04:53:34.182Z,1013.42
2023-06-01T04:54:34.193Z,1013.40
2023-06-01T04:55:34.210Z,1013.39
2023-06-01T04:56:34.226Z,1013.41
2023-06-01T04:57:34.240Z,1013.43
2023-06-01T04:58:34.267Z,1013.42
2023-06-01T04:59:34.278Z,1013.36
2023-06-01T05:00:34.292Z,1013.36
2023-06-01T05:01:34.319Z,1013.35
2023-06-01T05:02:34.362Z,1013.43
2023-06-01T05:03:34.360Z,1013.40
2023-06-01T05:04:34.360Z,1013.36
2023-06-01T05:05:34.388Z,1013.43
2023-06-01T05:06:34.390Z,1013.35
2023-06-01T05:07:34.410Z,1013.35
2023-06-01T05:08:34.429Z,1013.33
2023-06-01T05:09:34.465Z,1013.35
2023-06-01T05:10:34.460Z,1013.32
2023-06-01T05:11:34.473Z,1013.36
2023-06-01T05:12:34.508Z,1013.38
2023-06-01T05:13:34.507Z,1013.37
2023-06-01T05:14:34.537Z,1013.36
2023-06-01T05:15:34.566Z,1013.38
2023-06-01T05:16:34.625Z,1013.36
2023-06-01T05:17:34.602Z,1013.41
2023-06-01T05:18:34.591Z,1013.41
2023-06-01T05:19:34.604Z,1013.37
2023-06-01T05:20:34.626Z,1013.38
2023-06-01T05:21:34.697Z,1013.41
2023-06-01T05:22:34.657Z,1013.36
2023-06-01T05:23:34.700Z,1013.36
2023-06-01T05:24:34.689Z,1013.36
2023-06-01T05:25:34.706Z,1013.34
2023-06-01T05:26:34.728Z,1013.35
2023-06-01T05:27:34.746Z,1013.33
2023-06-01T05:28:35.602Z,1013.34
2023-06-01T05:29:34.775Z,1013.35
2023-06-01T05:30:34.801Z,1013.38
2023-06-01T05:31:34.873Z,1013.37
2023-06-01T05:32:34.869Z,1013.38
2023-06-01T05:33:34.836Z,1013.38
2023-06-01T05:34:34.853Z,1013.36
2023-06-01T05:35:34.869Z,1013.41
2023-06-01T05:36:34.888Z,1013.43
2023-06-01T05:37:34.903Z,1013.41
2023-06-01T05:38:34.922Z,1013.38
2023-06-01T05:39:34.934Z,1013.42
2023-06-01T05:40:34.951Z,1013.45
2023-06-01T05:41:34.969Z,1013.49
2023-06-01T05:42:34.983Z,1013.46
2023-06-01T05:43:34.999Z,1013.52
2023-06-01T05:44:35.035Z,1013.49
2023-06-01T05:45:35.095Z,1013.51
2023-06-01T05:46:35.050Z,1013.53
2023-06-01T05:47:35.089Z,1013.58
2023-06-01T05:48:35.091Z,1013.59
2023-06-01T05:49:35.112Z,1013.60
2023-06-01T05:50:35.126Z,1013.64
2023-06-01T05:51:35.135Z,1013.62
2023-06-01T05:52:35.153Z,1013.66
2023-06-01T05:53:35.167Z,1013.57
2023-06-01T05:54:35.185Z,1013.63
2023-06-01T05:55:35.201Z,1013.72
2023-06-01T05:56:35.236Z,1013.70
2023-06-01T05:57:35.284Z,1013.65
2023-06-01T05:58:35.258Z,1013.62
2023-06-01T05:59:35.276Z,1013.64
2023-06-01T06:00:35.297Z,1013.63
2023-06-01T06:01:35.309Z,1013.57
2023-06-01T06:02:35.381Z,1013.61
2023-06-01T06:03:35.453Z,1013.62
2023-06-01T06:04:35.403Z,1013.58
2023-06-01T06:05:35.377Z,1013.66
2023-06-01T06:06:35.630Z,1013.60
2023-06-01T06:07:35.409Z,1013.62
2023-06-01T06:08:35.434Z,1013.63
2023-06-01T06:09:35.448Z,1013.60
2023-06-01T06:10:35.468Z,1013.65
2023-06-01T06:11:35.489Z,1013.57
2023-06-01T06:12:35.508Z,1013.61
2023-06-01T06:13:35.530Z,1013.60
2023-06-01T06:14:35.549Z,1013.61
2023-06-01T06:15:35.709Z,1013.64
2023-06-01T06:16:35.651Z,1013.57
2023-06-01T06:17:35.611Z,1013.62
2023-06-01T06:18:35.606Z,1013.60
2023-06-01T06:19:35.633Z,1013.57
2023-06-01T06:20:35.643Z,1013.61
2023-06-01T06:21:35.683Z,1013.57
2023-06-01T06:22:35.702Z,1013.57
2023-06-01T06:23:35.696Z,1013.59
2023-06-01T06:24:35.740Z,1013.50
2023-06-01T06:25:35.750Z,1013.55
2023-06-01T06:26:35.760Z,1013.57
2023-06-01T06:27:35.804Z,1013.57
2023-06-01T06:28:35.786Z,1013.58
2023-06-01T06:29:35.810Z,1013.57
2023-06-01T06:30:35.841Z,1013.52
2023-06-01T06:31:35.965Z,1013.52
2023-06-01T06:32:35.968Z,1013.51
2023-06-01T06:33:35.890Z,1013.54
2023-06-01T06:34:35.896Z,1013.59
2023-06-01T06:35:35.919Z,1013.65
2023-06-01T06:36:35.933Z,1013.63
2023-06-01T06:37:35.972Z,1013.64
2023-06-01T06:38:35.974Z,1013.78
2023-06-01T06:39:36.010Z,1013.64
2023-06-01T06:40:36.012Z,1013.64
2023-06-01T06:41:36.028Z,1013.66
2023-06-01T06:42:36.045Z,1013.65
2023-06-01T06:43:36.061Z,1013.64
2023-06-01T06:44:36.102Z,1013.66
2023-06-01T06:45:36.107Z,1013.70
2023-06-01T06:46:36.148Z,1013.73
2023-06-01T06:47:36.176Z,1013.71
2023-06-01T06:48:36.166Z,1013.71
2023-06-01T06:49:36.177Z,1013.73
2023-06-01T06:50:36.206Z,1013.61
2023-06-01T06:51:36.220Z,1013.61
2023-06-01T06:52:36.237Z,1013.67
2023-06-01T06:53:36.259Z,1013.60
2023-06-01T06:54:36.275Z,1013.65
2023-06-01T06:55:36.291Z,1013.68
2023-06-01T06:56:36.327Z,1013.67
2023-06-01T06:57:36.333Z,1013.60
2023-06-01T06:58:36.351Z,1013.63
2023-06-01T06:59:36.385Z,1013.66
2023-06-01T07:00:36.412Z,1013.67
2023-06-01T07:01:38.608Z,1013.67
2023-06-01T07:02:36.469Z,1013.64
2023-06-01T07:03:36.478Z,1013.64
2023-06-01T07:04:36.471Z,1013.85
2023-06-01T07:05:36.508Z,1013.74
2023-06-01T07:06:36.517Z,1013.65
2023-06-01T07:07:36.528Z,1013.74
2023-06-01T07:08:36.550Z,1013.70
2023-06-01T07:09:36.587Z,1013.76
2023-06-01T07:10:36.595Z,1013.59
2023-06-01T07:11:36.627Z,1013.62
2023-06-01T07:12:36.646Z,1013.54
2023-06-01T07:13:36.678Z,1013.61
2023-06-01T07:14:36.676Z,1013.63
2023-06-01T07:15:36.695Z,1013.62
2023-06-01T07:16:36.748Z,1013.67
2023-06-01T07:17:36.768Z,1013.62
2023-06-01T07:18:36.756Z,1013.59
2023-06-01T07:19:36.776Z,1013.65
2023-06-01T07:20:36.798Z,1013.62
2023-06-01T07:21:36.867Z,1013.62
2023-06-01T07:22:36.841Z,1013.64
2023-06-01T07:23:36.864Z,1013.68
2023-06-01T07:24:36.883Z,1013.68
2023-06-01T07:25:36.904Z,1013.69
2023-06-01T07:26:36.928Z,1013.69
2023-06-01T07:27:36.947Z,1013.60
2023-06-01T07:28:36.966Z,1013.64
2023-06-01T07:29:36.991Z,1013.63
2023-06-01T07:30:37.007Z,1013.62
2023-06-01T07:31:37.171Z,1013.61
2023-06-01T07:32:37.266Z,1013.62
2023-06-01T07:33:37.155Z,1013.62
2023-06-01T07:34:37.128Z,1013.53
2023-06-01T07:35:37.138Z,1013.59
2023-06-01T07:36:37.136Z,1013.50
2023-06-01T07:37:37.159Z,1013.56
2023-06-01T07:38:38.233Z,1013.59
2023-06-01T07:39:37.205Z,1013.69
2023-06-01T07:40:37.227Z,1013.59
2023-06-01T07:41:37.248Z,1013.56
2023-06-01T07:42:37.266Z,1013.60
2023-06-01T07:43:37.297Z,1013.76
2023-06-01T07:44:37.310Z,1013.74
2023-06-01T07:45:37.349Z,1013.76
2023-06-01T07:46:37.465Z,1013.80
2023-06-01T07:47:37.427Z,1013.69
2023-06-01T07:48:37.417Z,1013.57
2023-06-01T07:49:37.536Z,1013.53
2023-06-01T07:50:37.454Z,1013.50
2023-06-01T07:51:37.466Z,1013.48
2023-06-01T07:52:37.496Z,1013.50
2023-06-01T07:53:37.514Z,1013.46
2023-06-01T07:54:37.544Z,1013.49
2023-06-01T07:55:37.560Z,1013.72
2023-06-01T07:56:37.583Z,1013.58
2023-06-01T07:57:37.605Z,1013.63
2023-06-01T07:58:37.650Z,1013.54
2023-06-01T07:59:37.668Z,1013.66
2023-06-01T08:00:37.681Z,1013.62
2023-06-01T08:01:37.702Z,1013.53
2023-06-01T08:02:37.777Z,1013.52
2023-06-01T08:03:37.942Z,1013.45
2023-06-01T08:04:37.775Z,1013.52
2023-06-01T08:05:39.311Z,1013.45
2023-06-01T08:06:37.821Z,1013.56
2023-06-01T08:07:37.847Z,1013.40
2023-06-01T08:08:37.889Z,1013.41
2023-06-01T08:09:37.895Z,1013.43
2023-06-01T08:10:37.920Z,1013.40
2023-06-01T08:11:37.944Z,1013.33
2023-06-01T08:12:37.968Z,1013.31
2023-06-01T08:13:38.000Z,1013.35
2023-06-01T08:14:38.026Z,1013.37
2023-06-01T08:15:38.066Z,1013.36
2023-06-01T08:16:38.095Z,1013.36
2023-06-01T08:17:38.166Z,1013.37
2023-06-01T08:18:38.130Z,1013.33
2023-06-01T08:19:38.148Z,1013.30
2023-06-01T08:20:38.174Z,1013.29
2023-06-01T08:21:38.222Z,1013.32
2023-06-01T08:22:38.232Z,1013.35
2023-06-01T08:23:38.262Z,1013.35
2023-06-01T08:24:38.275Z,1013.28
2023-06-01T08:25:38.304Z,1013.35
2023-06-01T08:26:38.346Z,1013.34
2023-06-01T08:27:38.363Z,1013.31
2023-06-01T08:28:38.381Z,1013.34
2023-06-01T08:29:42.865Z,1013.33
2023-06-01T08:30:38.440Z,1013.34
2023-06-01T08:31:38.544Z,1013.33
2023-06-01T08:32:38.565Z,1013.26
2023-06-01T08:33:38.514Z,1013.24
2023-06-01T08:34:38.583Z,1013.25
2023-06-01T08:36:38.595Z,1013.13
2023-06-01T08:37:38.619Z,1013.18
2023-06-01T08:38:38.680Z,1013.23
2023-06-01T08:39:38.677Z,1013.23
2023-06-01T08:40:38.701Z,1013.24
2023-06-01T08:41:38.746Z,1013.28
2023-06-01T08:42:38.768Z,1013.24
2023-06-01T08:43:38.785Z,1013.19
2023-06-01T08:44:38.813Z,1013.20
2023-06-01T08:45:38.838Z,1013.13
2023-06-01T08:46:38.910Z,1013.24
2023-06-01T08:47:38.908Z,1013.20
2023-06-01T08:48:38.919Z,1013.19
2023-06-01T08:49:38.945Z,1013.12
2023-06-01T08:50:38.980Z,1013.12
2023-06-01T08:51:39.022Z,1013.07
2023-06-01T08:52:39.032Z,1013.06
2023-06-01T08:53:39.055Z,1013.14
2023-06-01T08:54:39.085Z,1013.13
2023-06-01T08:55:39.109Z,1013.13
2023-06-01T08:56:39.134Z,1013.16
2023-06-01T08:57:39.162Z,1013.06
2023-06-01T08:58:39.194Z,1013.07
2023-06-01T08:59:39.219Z,1013.07
2023-06-01T09:00:39.248Z,1013.14
2023-06-01T09:01:39.424Z,1013.05
2023-06-01T09:02:39.323Z,1013.09
2023-06-01T09:03:39.368Z,1013.06
2023-06-01T09:04:39.369Z,1013.08
2023-06-01T09:05:39.390Z,1013.09
2023-06-01T09:06:39.424Z,1013.05
2023-06-01T09:07:39.441Z,1013.00
2023-06-01T09:08:39.577Z,1013.03
2023-06-01T09:09:39.638Z,1012.97
2023-06-01T09:10:39.540Z,1012.95
2023-06-01T09:11:39.560Z,1012.95
2023-06-01T09:12:39.589Z,1012.96
2023-06-01T09:13:39.627Z,1013.01
2023-06-01T09:14:39.641Z,1013.01
2023-06-01T09:15:39.681Z,1012.92
2023-06-01T09:16:39.740Z,1012.91
2023-06-01T09:17:39.785Z,1012.92
2023-06-01T09:18:39.769Z,1012.97
2023-06-01T09:19:39.800Z,1012.92
2023-06-01T09:20:39.817Z,1012.95
2023-06-01T09:21:39.915Z,1012.98
2023-06-01T09:22:39.876Z,1012.91
2023-06-01T09:23:39.910Z,1012.90
2023-06-01T09:24:39.934Z,1012.88
2023-06-01T09:25:39.962Z,1012.92
2023-06-01T09:26:39.992Z,1012.85
2023-06-01T09:27:40.022Z,1012.86
2023-06-01T09:28:40.049Z,1012.83
2023-06-01T09:29:40.097Z,1012.83
2023-06-01T09:30:40.120Z,1012.82
2023-06-01T09:31:40.214Z,1012.78
2023-06-01T09:32:40.200Z,1012.75
2023-06-01T09:33:40.204Z,1012.78
2023-06-01T09:34:40.253Z,1012.77
2023-06-01T09:35:40.271Z,1012.74
2023-06-01T09:36:40.301Z,1012.72
2023-06-01T09:37:40.319Z,1012.75
2023-06-01T09:38:40.353Z,1012.71
2023-06-01T09:39:40.381Z,1012.77
2023-06-01T09:40:40.409Z,1012.65
2023-06-01T09:41:40.441Z,1012.72
2023-06-01T09:42:40.475Z,1012.67
2023-06-01T09:43:40.510Z,1012.66
2023-06-01T09:44:40.546Z,1012.64
2023-06-01T09:45:40.559Z,1012.57
2023-06-01T09:46:40.630Z,1012.59
2023-06-01T09:47:40.664Z,1012.62
2023-06-01T09:48:40.662Z,1012.65
2023-06-01T09:49:40.676Z,1012.66
2023-06-01T09:50:40.717Z,1012.63
2023-06-01T09:51:40.737Z,1012.57
2023-06-01T09:52:40.779Z,1012.67
2023-06-01T09:53:40.798Z,1012.61
2023-06-01T09:54:40.849Z,1012.60
2023-06-01T09:55:40.860Z,1012.56
2023-06-01T09:56:40.894Z,1012.60
2023-06-01T09:57:40.925Z,1012.55
2023-06-01T09:58:41.110Z,1012.55
2023-06-01T09:59:40.984Z,1012.44
2023-06-01T10:00:41.784Z,1012.58
2023-06-01T10:01:41.065Z,1012.50
2023-06-01T10:02:41.164Z,1012.51
2023-06-01T10:03:41.190Z,1012.55
2023-06-01T10:04:41.148Z,1012.48
2023-06-01T10:05:41.168Z,1012.46
2023-06-01T10:06:41.201Z,1012.57
2023-06-01T10:07:41.233Z,1012.53
2023-06-01T10:08:41.262Z,1012.53
2023-06-01T10:09:41.337Z,1012.52
2023-06-01T10:10:41.326Z,1012.48
2023-06-01T10:11:41.358Z,1012.46
2023-06-01T10:12:41.388Z,1012.44
2023-06-01T10:13:41.423Z,1012.47
2023-06-01T10:14:41.482Z,1012.41
2023-06-01T10:15:41.524Z,1012.36
2023-06-01T10:16:41.575Z,1012.41
2023-06-01T10:17:41.575Z,1012.37
2023-06-01T10:18:41.583Z,1012.39
2023-06-01T10:19:41.609Z,1012.45
2023-06-01T10:20:41.657Z,1012.41
2023-06-01T10:21:41.700Z,1012.42
2023-06-01T10:22:43.111Z,1012.37
2023-06-01T10:23:41.736Z,1012.36
2023-06-01T10:24:41.873Z,1012.42
2023-06-01T10:25:41.799Z,1012.31
2023-06-01T10:26:41.831Z,1012.27
2023-06-01T10:27:44.039Z,1012.27
2023-06-01T10:28:43.252Z,1012.27
2023-06-01T10:29:41.930Z,1012.32
2023-06-01T10:30:41.981Z,1012.27
2023-06-01T10:31:42.242Z,1012.38
2023-06-01T10:32:42.126Z,1012.30
2023-06-01T10:33:42.061Z,1012.23
2023-06-01T10:34:42.091Z,1012.27
2023-06-01T10:35:42.128Z,1012.24
2023-06-01T10:36:42.158Z,1012.26
2023-06-01T10:37:42.185Z,1012.33
2023-06-01T10:38:42.219Z,1012.25
2023-06-01T10:39:42.272Z,1012.22
2023-06-01T10:40:42.289Z,1012.29
2023-06-01T10:41:42.318Z,1012.20
2023-06-01T10:42:42.369Z,1012.21
2023-06-01T10:43:42.418Z,1012.18
2023-06-01T10:44:42.438Z,1012.21
2023-06-01T10:45:42.671Z,1012.22
2023-06-01T10:46:45.428Z,1012.20
2023-06-01T10:47:42.538Z,1012.19
2023-06-01T10:48:42.545Z,1012.23
2023-06-01T10:49:42.579Z,1012.15
2023-06-01T10:50:42.662Z,1012.15
2023-06-01T10:51:42.685Z,1012.15
2023-06-01T10:52:42.679Z,1012.10
2023-06-01T10:53:42.726Z,1012.12
2023-06-01T10:54:42.745Z,1012.09
2023-06-01T10:55:42.777Z,1012.14
2023-06-01T10:56:42.811Z,1012.13
2023-06-01T10:57:42.843Z,1012.09
2023-06-01T10:58:42.879Z,1012.10
2023-06-01T10:59:42.925Z,1012.09
2023-06-01T11:00:43.101Z,1012.06
2023-06-01T11:01:43.056Z,1012.10
2023-06-01T11:02:43.093Z,1012.08
2023-06-01T11:03:43.106Z,1012.05
2023-06-01T11:04:43.153Z,1012.27
2023-06-01T11:05:43.124Z,1012.21
2023-06-01T11:06:43.153Z,1012.14
2023-06-01T11:07:43.184Z,1012.06
2023-06-01T11:08:43.221Z,1012.03
2023-06-01T11:09:43.258Z,1012.06
2023-06-01T11:10:43.294Z,1011.89
2023-06-01T11:11:43.321Z,1012.03
2023-06-01T11:12:43.351Z,1012.12
2023-06-01T11:13:43.386Z,1012.00
2023-06-01T11:14:43.520Z,1011.98
2023-06-01T11:15:44.612Z,1011.99
2023-06-01T11:16:43.544Z,1011.95
2023-06-01T11:17:43.563Z,1011.96
2023-06-01T11:18:43.557Z,1012.08
2023-06-01T11:19:43.586Z,1012.01
2023-06-01T11:20:43.620Z,1011.95
2023-06-01T11:21:43.675Z,1012.01
2023-06-01T11:22:43.691Z,1011.98
2023-06-01T11:23:43.724Z,1012.02
2023-06-01T11:24:43.759Z,1012.04
2023-06-01T11:25:43.787Z,1011.99
2023-06-01T11:26:43.823Z,1011.97
2023-06-01T11:27:43.854Z,1011.93
2023-06-01T11:28:43.890Z,1011.91
2023-06-01T11:29:43.922Z,1011.88
2023-06-01T11:30:43.957Z,1011.82
2023-06-01T11:31:44.022Z,1011.84
2023-06-01T11:32:44.055Z,1011.91
2023-06-01T11:33:44.054Z,1011.95
2023-06-01T11:34:44.088Z,1011.87
2023-06-01T11:35:44.133Z,1011.85
2023-06-01T11:36:44.156Z,1011.80
2023-06-01T11:37:44.194Z,1011.74
2023-06-01T11:38:44.238Z,1011.78
2023-06-01T11:39:44.266Z,1011.73
2023-06-01T11:40:44.297Z,1011.76
2023-06-01T11:41:44.328Z,1011.75
2023-06-01T11:42:44.357Z,1011.73
2023-06-01T11:43:44.393Z,1011.70
2023-06-01T11:44:44.426Z,1011.69
2023-06-01T11:45:44.799Z,1011.64
2023-06-01T11:46:44.535Z,1011.71
2023-06-01T11:47:44.547Z,1011.72
2023-06-01T11:48:44.582Z,1011.75
2023-06-01T11:49:44.596Z,1011.74
2023-06-01T11:50:44.631Z,1011.73
2023-06-01T11:51:44.668Z,1011.64
2023-06-01T11:52:44.707Z,1011.69
2023-06-01T11:53:44.736Z,1011.67
2023-06-01T11:54:44.772Z,1011.67
2023-06-01T11:55:44.806Z,1011.68
2023-06-01T11:56:44.879Z,1011.68
2023-06-01T11:57:44.876Z,1011.67
2023-06-01T11:58:44.915Z,1011.76
2023-06-01T11:59:44.950Z,1011.61
2023-06-01T12:00:44.975Z,1011.69
2023-06-01T12:01:45.083Z,1011.59
2023-06-01T12:02:45.234Z,1011.59
2023-06-01T12:03:45.119Z,1011.58
2023-06-01T12:04:45.115Z,1011.58
2023-06-01T12:05:45.157Z,1011.60
2023-06-01T12:06:45.195Z,1011.60